Flemington, Pennsylvania
Current Conditions -  °F | °C
As of 8:54 PM on Saturday 22 Nov 2014 (Local Time) from KIPT Reporting Station
Overcast Overcast  
Wind Chill: 29°   Ceiling: 6000
Heat Index: 33°   Visibility: 10mi
Dew Point: 27°   Wind: 5mph
Humidity: 78%   Direction: 240°WSW
Pressure: 30.18"   Gusts: NA
Location:  41.2558°N, 77.4987°W
Report Text: KIPT 230154Z 24004KT 10SM OVC060 01/M03 A3018 RMK AO2 SLP226 T00061028
Loading
Personal Weather Stations






























Interactive Weather Map New forecast layout! Learn more

10-Day Weather Forecast

Advertisements
Track Severe Weather on mobile